SLRI/RIB METAR and TAF weather

Enter ICAO airport designator
Station Type Date Time Source
SLRI METAR 2020/07/06 20:00 UTC NOAA

SLRI 062000Z 06005KT 9999 SCT017 FEW020CB BKN200 33/22 Q1010


Station Type Date Time Source
SLRI Decoded METAR 2020/07/06 20:00 UTC NOAA

Riberalta, Bolivia (SLRI) 11-00S 066-07W
Jul 06, 2020 - 04:00 PM EDT / 2020.07.06 2000 UTC
Wind: from the ENE (060 degrees) at 6 MPH (5 KT):0
Visibility: greater than 7 mile(s):0
Sky conditions: mostly cloudy
Weather: Cumulonimbus clouds observed
Temperature: 91 F (33 C)
Heat index: 97.5 F (36.4 C):1
Dew Point: 71 F (22 C)
Relative Humidity: 52%
Pressure (altimeter): 29.83 in. Hg (1010 hPa)
ob: SLRI 062000Z 06005KT 9999 SCT017 FEW020CB BKN200 33/22 Q1010
cycle: 20

Station Type Date Time Source
SLRI TAF 2015/11/18 00:29 UTC NOAA

TAF SLRI 182200Z 1900/1924 00000KT 9999 FEW015 TX37/1919Z TN23/1910Z
BECMG 1912/1914 33011KT SCT020
TEMPO 1919/1922 8000 VCSH FEW020 FEW023CB BKN080

Example: see airport list